Herington, KS

1:07 AM CDT on March 29, 2017 (GMT -0500)
Pearl | | Change Station

Elev 1299 ft 38.84 °N, 97.03 °W | Updated 30 seconds ago

Rain
Rain
49.0 °F
Feels Like 44 °F
N
13.0
Wind Variable Wind from NE

Today
High -- | Low -- °F
--% Chance of Precip.
Yesterday
High -- | Low -- °F
Precip. -- in
Pressure 29.95 in
Visibility 4.0 miles
Clouds Overcast 600 ft
Windchill 44 °F
Dew Point 48 °F
Humidity 96%
Rainfall 0.43 in
Snow Depth Not available.
7:16 AM 7:48 PM
New Moon, 2% visible
METAR KFRI 290558Z AUTO 04011KT 4SM +RA BR VCTS OVC006 10/10 A2995 RMK AO2 OVC V BKN SLP140 P0024 60040 T01030102 10121 20103 401720070 50000
Pressure 29.95 in
Visibility 4.0 miles
Clouds Overcast 600 ft
Windchill 44 °F
Dew Point 48 °F
Humidity 96%
Rainfall 0.43 in
Snow Depth Not available.
7:16 AM 7:48 PM
New Moon, 2% visible
METAR KFRI 290558Z AUTO 04011KT 4SM +RA BR VCTS OVC006 10/10 A2995 RMK AO2 OVC V BKN SLP140 P0024 60040 T01030102 10121 20103 401720070 50000

Get Severe Weather Alerts

Thanks for signing up!

Be on the lookout for a verification email in your inbox.

You'll start receiving the daily forecast at 8 AM.

×

10-Day Weather Forecast

Almanac

Astronomy

Mar. 29, 2017 Rise Set
Actual Time
Civil Twilight
Nautical Twilight
Astronomical Twilight
Moon
Length of Visible Light
Length of Day
Tomorrow will be .
, % of the Moon is Illuminated

Today's Extremes

State Highs State Lows

Community

WunderPhotos

Upload Photos

1,962,540 photos uploaded!

WunderBlog® & News

Nearby

Air Quality

  Air Quality AQ Index Pollutant
Not available.

Snow Depth

Station Depth Elevation

Earthquake Activity

City Distance Mag. Time & Date
Minimum magnitude displayed is 2.5.

Earthquake Activity

City Distance Mag. Time & Date
Minimum magnitude displayed is 2.5.

Coastal Water Temperatures

Place Temperature

Stations

Nearby Weather Stations

Station Location Temp. Windchill Dew Point Humidity Wind Precip. Elev Updated Type
                   

Watches & Warnings

There are currently no watches in effect.